Mowersville, Pennsylvania
Current Conditions -  °F | °C
As of 7:53 AM on Thursday 23 Oct 2014 (Local Time) from KRYT Reporting Station
Broken Clouds Broken Clouds  
Wind Chill: 50°   Ceiling: 3200
Heat Index: 50°   Visibility: 10mi
Dew Point: 41°   Wind: 0mph
Humidity: 71%   Direction: NA
Pressure: 29.9"   Gusts: NA
Location:  40.0414°N, 77.4967°W
Report Text: KRYT 231153Z AUTO 00000KT 10SM SCT027 BKN032 BKN039 10/05 A2990 RMK AO2 SLP128 70006 T01000050 10100 20089 52002 $
Loading
Personal Weather Stations






























Interactive Weather Map
Tropical Storm Tracking
New forecast layout! Learn more

10-Day Weather Forecast

Advertisements
Track Severe Weather on mobile